createdAt,value
2023-02-13T00:00:25.398Z,10.00
2023-02-13T00:02:51.808Z,10.00
2023-02-13T00:05:18.251Z,12.00
2023-02-13T00:07:47.414Z,10.50
2023-02-13T00:10:13.815Z,10.00
2023-02-13T00:12:40.170Z,8.67
2023-02-13T00:15:07.385Z,11.50
2023-02-13T00:17:33.775Z,8.67
2023-02-13T00:20:00.998Z,9.00
2023-02-13T00:22:28.529Z,11.00
2023-02-13T00:24:54.892Z,9.00
2023-02-13T00:27:21.277Z,11.00
2023-02-13T00:29:47.662Z,9.67
2023-02-13T00:32:14.137Z,9.00
2023-02-13T00:34:40.664Z,12.67
2023-02-13T00:37:07.003Z,9.00
2023-02-13T00:39:33.394Z,7.00
2023-02-13T00:41:59.750Z,8.00
2023-02-13T00:44:26.967Z,7.50
2023-02-13T00:46:53.334Z,9.00
2023-02-13T00:49:22.491Z,8.50
2023-02-13T00:51:49.706Z,11.00
2023-02-13T00:57:00.982Z,9.00
2023-02-13T00:59:27.365Z,10.00
2023-02-13T01:01:53.857Z,10.00
2023-02-13T01:04:21.105Z,9.75
2023-02-13T01:06:47.424Z,8.67
2023-02-13T01:12:07.495Z,8.00
2023-02-13T01:14:33.893Z,9.50
2023-02-13T01:17:00.250Z,7.00
2023-02-13T01:19:26.611Z,8.00
2023-02-13T01:21:52.995Z,8.33
2023-02-13T01:27:03.316Z,11.00
2023-02-13T01:29:29.667Z,7.67
2023-02-13T01:31:56.232Z,9.33
2023-02-13T01:34:24.659Z,8.67
2023-02-13T01:36:50.977Z,9.00
2023-02-13T01:42:11.172Z,5.33
2023-02-13T01:44:37.534Z,9.00
2023-02-13T01:47:03.964Z,11.00
2023-02-13T01:49:30.386Z,10.00
2023-02-13T01:51:56.725Z,8.33
2023-02-13T01:57:17.819Z,9.50
2023-02-13T01:59:44.426Z,9.00
2023-02-13T02:02:10.912Z,8.33
2023-02-13T02:04:37.378Z,6.67
2023-02-13T02:07:06.436Z,8.33
2023-02-13T02:12:26.615Z,7.00
2023-02-13T02:14:52.984Z,9.00
2023-02-13T02:17:19.313Z,8.33
2023-02-13T02:19:45.698Z,6.33
2023-02-13T02:22:12.085Z,9.50
2023-02-13T02:27:22.402Z,8.00
2023-02-13T02:29:48.732Z,7.00
2023-02-13T02:32:15.085Z,4.33
2023-02-13T02:34:41.412Z,9.00
2023-02-13T02:37:07.845Z,5.67
2023-02-13T02:42:18.144Z,5.00
2023-02-13T02:44:44.494Z,7.33
2023-02-13T02:47:10.845Z,6.67
2023-02-13T02:49:37.156Z,6.33
2023-02-13T02:52:03.490Z,6.00
2023-02-13T02:57:23.939Z,7.00
2023-02-13T02:59:50.300Z,6.67
2023-02-13T03:02:17.504Z,4.50
2023-02-13T03:04:43.852Z,7.33
2023-02-13T03:07:10.186Z,7.33
2023-02-13T03:12:20.740Z,7.00
2023-02-13T03:14:47.080Z,7.00
2023-02-13T03:17:14.297Z,5.75
2023-02-13T03:19:40.638Z,4.33
2023-02-13T03:22:07.048Z,5.00
2023-02-13T03:27:19.960Z,6.67
2023-02-13T03:29:46.295Z,6.33
2023-02-13T03:32:12.667Z,5.00
2023-02-13T03:34:39.001Z,6.00
2023-02-13T03:37:05.375Z,6.33
2023-02-13T03:42:25.408Z,6.00
2023-02-13T03:44:52.629Z,6.00
2023-02-13T03:47:18.959Z,7.33
2023-02-13T03:49:45.353Z,8.00
2023-02-13T03:52:11.712Z,6.33
2023-02-13T03:57:21.883Z,7.00
2023-02-13T03:59:48.206Z,4.67
2023-02-13T04:02:14.637Z,6.67
2023-02-13T04:04:41.006Z,5.00
2023-02-13T04:07:07.406Z,7.00
2023-02-13T04:12:14.013Z,3.33
2023-02-13T04:14:40.315Z,6.67
2023-02-13T04:17:06.671Z,5.67
2023-02-13T04:19:32.997Z,6.67
2023-02-13T04:21:59.334Z,4.00
2023-02-13T04:24:25.673Z,5.00
2023-02-13T04:26:52.020Z,7.00
2023-02-13T04:29:19.272Z,5.25
2023-02-13T04:31:45.721Z,5.00
2023-02-13T04:34:12.179Z,3.33
2023-02-13T04:36:38.524Z,6.33
2023-02-13T04:39:04.880Z,4.33
2023-02-13T04:41:31.221Z,5.33
2023-02-13T04:43:57.565Z,5.67
2023-02-13T04:46:24.009Z,6.33
2023-02-13T04:48:50.364Z,6.33
2023-02-13T04:51:16.714Z,7.00
2023-02-13T04:53:43.053Z,3.33
2023-02-13T04:56:10.263Z,5.50
2023-02-13T04:58:36.649Z,6.00
2023-02-13T05:01:03.062Z,5.00
2023-02-13T05:03:29.435Z,5.33
2023-02-13T05:05:55.797Z,5.00
2023-02-13T05:08:22.134Z,5.00
2023-02-13T05:10:48.503Z,7.00
2023-02-13T05:13:14.837Z,6.00
2023-02-13T05:15:41.227Z,4.67
2023-02-13T05:18:07.601Z,7.33
2023-02-13T05:20:33.929Z,4.00
2023-02-13T05:23:00.342Z,3.67
2023-02-13T05:31:04.638Z,6.33
2023-02-13T05:33:31.076Z,5.00
2023-02-13T05:35:57.422Z,4.00
2023-02-13T05:38:23.748Z,6.33
2023-02-13T05:40:50.089Z,6.00
2023-02-13T05:43:16.418Z,7.00
2023-02-13T05:45:42.788Z,7.00
2023-02-13T05:48:10.005Z,5.75
2023-02-13T05:50:36.354Z,8.00
2023-02-13T05:53:02.746Z,7.33
2023-02-13T05:55:29.067Z,7.00
2023-02-13T06:00:39.395Z,9.50
2023-02-13T06:03:08.507Z,9.33
2023-02-13T06:05:34.875Z,9.00
2023-02-13T06:08:01.206Z,7.00
2023-02-13T06:10:27.577Z,8.50
2023-02-13T06:15:38.080Z,6.33
2023-02-13T06:18:04.469Z,9.00
2023-02-13T06:20:30.896Z,9.00
2023-02-13T06:22:59.606Z,9.33
2023-02-13T06:25:25.952Z,7.33
2023-02-13T06:30:47.313Z,8.75
2023-02-13T06:33:13.736Z,7.33
2023-02-13T06:35:40.046Z,7.00
2023-02-13T06:38:06.384Z,6.67
2023-02-13T06:40:32.754Z,6.00
2023-02-13T06:45:43.683Z,9.00
2023-02-13T06:48:10.885Z,7.50
2023-02-13T06:50:37.248Z,8.33
2023-02-13T06:53:03.643Z,10.00
2023-02-13T06:55:30.057Z,11.33
2023-02-13T07:00:40.463Z,10.50
2023-02-13T07:03:07.688Z,8.50
2023-02-13T07:05:34.768Z,10.00
2023-02-13T07:08:02.046Z,10.25
2023-02-13T07:10:28.493Z,11.00
2023-02-13T07:15:49.333Z,10.00
2023-02-13T07:18:17.095Z,8.67
2023-02-13T07:20:46.253Z,10.00
2023-02-13T07:23:12.778Z,10.50
2023-02-13T07:25:40.179Z,11.00
2023-02-13T07:31:00.828Z,8.33
2023-02-13T07:33:27.351Z,8.00
2023-02-13T07:35:53.913Z,9.00
2023-02-13T07:38:20.301Z,8.67
2023-02-13T07:40:46.666Z,4.33
2023-02-13T07:45:58.158Z,10.25
2023-02-13T07:48:24.603Z,8.00
2023-02-13T07:50:51.362Z,9.00
2023-02-13T07:53:18.575Z,6.75
2023-02-13T07:55:44.906Z,6.67
2023-02-13T08:01:04.992Z,6.00
2023-02-13T08:03:31.350Z,7.00
2023-02-13T08:05:59.184Z,6.00
2023-02-13T08:08:25.702Z,6.00
2023-02-13T08:10:52.034Z,6.67
2023-02-13T08:16:02.209Z,7.00
2023-02-13T08:18:28.603Z,6.33
2023-02-13T08:20:54.983Z,7.00
2023-02-13T08:23:21.377Z,6.00
2023-02-13T08:25:47.723Z,5.67
2023-02-13T08:31:10.160Z,5.00
2023-02-13T08:33:38.038Z,5.00
2023-02-13T08:36:04.399Z,6.00
2023-02-13T08:38:30.714Z,6.00
2023-02-13T08:40:57.252Z,2.67
2023-02-13T08:46:10.305Z,5.67
2023-02-13T08:48:36.693Z,4.00
2023-02-13T08:51:03.040Z,5.00
2023-02-13T08:53:29.415Z,5.00
2023-02-13T08:55:55.892Z,4.00
2023-02-13T09:01:06.637Z,5.00
2023-02-13T09:03:33.011Z,5.00
2023-02-13T09:05:59.623Z,5.00
2023-02-13T09:08:26.096Z,5.67
2023-02-13T09:10:52.452Z,6.33
2023-02-13T09:13:18.815Z,4.67
2023-02-13T09:15:45.170Z,6.67
2023-02-13T09:18:12.452Z,6.75
2023-02-13T09:20:38.872Z,7.67
2023-02-13T09:23:05.231Z,7.00
2023-02-13T09:25:31.583Z,3.67
2023-02-13T09:27:57.908Z,7.00
2023-02-13T09:30:24.459Z,6.67
2023-02-13T09:32:50.952Z,7.00
2023-02-13T09:35:17.386Z,8.00
2023-02-13T09:37:43.715Z,6.00
2023-02-13T09:40:10.043Z,6.00
2023-02-13T09:42:36.472Z,9.00
2023-02-13T09:45:02.829Z,6.00
2023-02-13T09:47:29.154Z,7.00
2023-02-13T09:49:57.323Z,6.00
2023-02-13T09:52:23.648Z,6.33
2023-02-13T09:54:49.988Z,6.00
2023-02-13T09:57:16.320Z,6.00
2023-02-13T09:59:42.639Z,7.67
2023-02-13T10:02:09.861Z,6.75
2023-02-13T10:04:36.255Z,6.00
2023-02-13T10:07:02.639Z,5.67
2023-02-13T10:09:28.965Z,7.00
2023-02-13T10:11:55.919Z,7.00
2023-02-13T10:14:22.247Z,1.00
2023-02-13T10:16:48.558Z,6.67
2023-02-13T10:19:15.757Z,6.00
2023-02-13T10:21:42.066Z,6.00
2023-02-13T10:24:08.389Z,7.33
2023-02-13T10:26:34.724Z,7.00
2023-02-13T10:29:01.055Z,6.00
2023-02-13T10:34:11.334Z,4.67
2023-02-13T10:36:37.679Z,7.00
2023-02-13T10:39:04.145Z,6.33
2023-02-13T10:41:30.516Z,9.00
2023-02-13T10:43:56.875Z,8.67
2023-02-13T10:49:17.325Z,6.67
2023-02-13T10:51:43.785Z,6.33
2023-02-13T10:54:10.134Z,8.00
2023-02-13T10:56:36.467Z,8.00
2023-02-13T10:59:02.814Z,7.00
2023-02-13T11:04:23.445Z,10.00
2023-02-13T11:06:49.915Z,8.00
2023-02-13T11:09:16.274Z,9.00
2023-02-13T11:11:42.617Z,8.33
2023-02-13T11:14:09.865Z,7.75
2023-02-13T11:19:20.717Z,8.50
2023-02-13T11:21:49.879Z,11.33
2023-02-13T11:24:16.286Z,10.00
2023-02-13T11:26:42.652Z,9.50
2023-02-13T11:29:09.004Z,9.67
2023-02-13T11:34:19.284Z,5.67
2023-02-13T11:36:45.609Z,8.33
2023-02-13T11:39:11.957Z,8.67
2023-02-13T11:41:38.308Z,6.33
2023-02-13T11:44:04.679Z,5.00
2023-02-13T11:49:25.168Z,7.00
2023-02-13T11:51:51.508Z,7.00
2023-02-13T11:54:17.861Z,7.00
2023-02-13T11:57:03.284Z,8.00
2023-02-13T11:59:30.561Z,7.33
2023-02-13T12:04:50.961Z,6.00
2023-02-13T12:07:17.368Z,7.00
2023-02-13T12:09:43.686Z,6.67
2023-02-13T12:12:13.758Z,8.00
2023-02-13T12:14:40.105Z,6.00
2023-02-13T12:19:50.387Z,6.33
2023-02-13T12:22:16.766Z,5.33
2023-02-13T12:24:43.086Z,6.67
2023-02-13T12:27:10.341Z,11.00
2023-02-13T12:29:36.726Z,7.00
2023-02-13T12:34:46.852Z,10.00
2023-02-13T12:37:13.150Z,7.33
2023-02-13T12:39:39.505Z,6.67
2023-02-13T12:42:05.928Z,9.33
2023-02-13T12:44:32.293Z,6.67
2023-02-13T12:49:54.994Z,6.50
2023-02-13T12:52:22.477Z,7.00
2023-02-13T12:54:48.835Z,7.67
2023-02-13T12:57:16.077Z,8.00
2023-02-13T12:59:42.431Z,2.33
2023-02-13T13:05:02.570Z,7.33
2023-02-13T13:07:28.927Z,8.00
2023-02-13T13:09:55.257Z,7.00
2023-02-13T13:12:21.909Z,5.00
2023-02-13T13:14:48.261Z,7.33
2023-02-13T13:19:58.425Z,8.00
2023-02-13T13:22:24.754Z,7.00
2023-02-13T13:24:51.134Z,7.00
2023-02-13T13:27:17.469Z,7.00
2023-02-13T13:29:43.824Z,8.00
2023-02-13T13:34:54.169Z,4.67
2023-02-13T13:37:20.490Z,2.67
2023-02-13T13:39:46.922Z,8.33
2023-02-13T13:42:13.284Z,8.33
2023-02-13T13:44:39.642Z,6.33
2023-02-13T13:50:00.165Z,6.00
2023-02-13T13:52:26.525Z,6.00
2023-02-13T13:54:52.869Z,5.00
2023-02-13T13:57:20.353Z,4.00
2023-02-13T13:59:46.726Z,3.67
2023-02-13T14:05:08.828Z,10.60
2023-02-13T14:07:35.172Z,6.00
2023-02-13T14:10:01.499Z,1.67
2023-02-13T14:12:27.825Z,3.00
2023-02-13T14:14:54.247Z,5.00
2023-02-13T14:20:14.601Z,2.00
2023-02-13T14:22:40.950Z,3.00
2023-02-13T14:25:07.296Z,2.33
2023-02-13T14:27:33.675Z,3.00
2023-02-13T14:30:00.059Z,5.33
2023-02-13T14:35:10.396Z,4.67
2023-02-13T14:37:36.738Z,3.67
2023-02-13T14:40:03.068Z,2.00
2023-02-13T14:42:29.395Z,3.00
2023-02-13T14:44:55.733Z,4.00
2023-02-13T14:47:22.054Z,2.33
2023-02-13T14:49:48.378Z,2.33
2023-02-13T14:52:15.577Z,4.25
2023-02-13T14:54:42.119Z,2.67
2023-02-13T14:57:08.460Z,3.67
2023-02-13T14:59:34.800Z,3.00
2023-02-13T15:02:01.171Z,3.00
2023-02-13T15:04:27.594Z,5.00
2023-02-13T15:06:53.992Z,2.67
2023-02-13T15:09:23.108Z,1.50
2023-02-13T15:11:49.433Z,2.67
2023-02-13T15:14:15.764Z,2.67
2023-02-13T15:16:42.131Z,3.33
2023-02-13T15:19:08.446Z,3.00
2023-02-13T15:21:34.771Z,4.00
2023-02-13T15:24:01.138Z,4.00
2023-02-13T15:26:27.481Z,4.00
2023-02-13T15:28:53.844Z,3.00
2023-02-13T15:31:22.336Z,3.00
2023-02-13T15:33:48.773Z,4.00
2023-02-13T15:36:15.148Z,3.00
2023-02-13T15:38:41.462Z,2.00
2023-02-13T15:41:07.804Z,3.67
2023-02-13T15:43:34.176Z,3.00
2023-02-13T15:46:00.581Z,3.00
2023-02-13T15:48:26.926Z,5.00
2023-02-13T15:50:53.324Z,4.00
2023-02-13T15:53:19.705Z,3.33
2023-02-13T15:55:46.033Z,2.33
2023-02-13T15:58:12.413Z,2.33
2023-02-13T16:00:38.768Z,3.67
2023-02-13T16:03:05.212Z,3.67
2023-02-13T16:08:16.612Z,4.50
2023-02-13T16:10:42.937Z,7.33
2023-02-13T16:13:10.165Z,6.50
2023-02-13T16:15:36.522Z,6.00
2023-02-13T16:18:02.892Z,7.00
2023-02-13T16:23:23.097Z,7.00
2023-02-13T16:25:49.457Z,7.00
2023-02-13T16:28:15.997Z,4.33
2023-02-13T16:30:42.323Z,5.00
2023-02-13T16:33:08.681Z,6.00
2023-02-13T16:38:29.490Z,7.67
2023-02-13T16:40:56.074Z,7.00
2023-02-13T16:43:22.605Z,5.00
2023-02-13T16:45:49.002Z,5.00
2023-02-13T16:48:15.371Z,6.67
2023-02-13T16:53:35.440Z,7.00
2023-02-13T16:56:01.816Z,6.00
2023-02-13T16:58:28.299Z,13.00
2023-02-13T17:00:55.669Z,8.00
2023-02-13T17:03:22.232Z,11.50
2023-02-13T17:08:44.329Z,10.25
2023-02-13T17:11:13.524Z,11.67
2023-02-13T17:13:39.853Z,3.67
2023-02-13T17:16:06.247Z,9.00
2023-02-13T17:18:33.551Z,10.00
2023-02-13T17:23:53.754Z,9.67
2023-02-13T17:26:21.014Z,10.25
2023-02-13T17:28:47.421Z,10.00
2023-02-13T17:31:14.782Z,10.25
2023-02-13T17:33:41.248Z,13.00
2023-02-13T17:39:01.599Z,10.50
2023-02-13T17:41:30.774Z,12.00
2023-02-13T17:43:57.150Z,10.00
2023-02-13T17:46:26.699Z,11.17
2023-02-13T17:48:55.916Z,11.17
2023-02-13T17:54:06.642Z,11.00
2023-02-13T17:56:33.879Z,9.75
2023-02-13T17:59:00.326Z,11.00
2023-02-13T18:01:26.709Z,9.50
2023-02-13T18:03:53.976Z,10.50
2023-02-13T18:09:15.337Z,12.00
2023-02-13T18:11:43.036Z,11.25
2023-02-13T18:14:12.163Z,8.67
2023-02-13T18:16:38.608Z,10.50
2023-02-13T18:19:05.004Z,8.33
2023-02-13T18:24:18.093Z,17.00
2023-02-13T18:26:44.524Z,17.50
2023-02-13T18:29:13.029Z,12.40
2023-02-13T18:31:41.476Z,12.60
2023-02-13T18:34:07.932Z,11.00
2023-02-13T18:39:32.506Z,19.67
2023-02-13T18:41:59.622Z,23.50
2023-02-13T18:44:28.594Z,18.00
2023-02-13T18:46:57.208Z,11.00
2023-02-13T18:49:23.706Z,14.00
2023-02-13T18:54:34.307Z,16.00
2023-02-13T18:57:02.618Z,15.00
2023-02-13T18:59:29.428Z,13.00
2023-02-13T19:01:55.856Z,14.00
2023-02-13T19:04:24.138Z,10.60
2023-02-13T19:09:45.622Z,22.50
2023-02-13T19:12:12.977Z,18.00
2023-02-13T19:14:40.247Z,16.67
2023-02-13T19:17:07.675Z,15.33
2023-02-13T19:19:36.860Z,10.17
2023-02-13T19:24:47.561Z,13.00
2023-02-13T19:27:13.960Z,12.50
2023-02-13T19:29:42.686Z,16.00
2023-02-13T19:32:09.174Z,11.00
2023-02-13T19:34:35.704Z,15.00
2023-02-13T19:39:55.879Z,11.50
2023-02-13T19:42:23.041Z,12.00
2023-02-13T19:44:49.508Z,10.00
2023-02-13T19:47:15.896Z,9.50
2023-02-13T19:49:42.476Z,9.00
2023-02-13T19:54:53.989Z,10.33
2023-02-13T19:57:21.233Z,10.00
2023-02-13T19:59:50.391Z,8.33
2023-02-13T20:02:17.655Z,8.50
2023-02-13T20:04:44.006Z,7.00
2023-02-13T20:10:04.263Z,9.00
2023-02-13T20:12:30.610Z,3.67
2023-02-13T20:14:56.928Z,7.33
2023-02-13T20:17:23.613Z,9.00
2023-02-13T20:19:49.968Z,8.33
2023-02-13T20:25:00.149Z,9.33
2023-02-13T20:27:26.555Z,10.33
2023-02-13T20:30:03.534Z,9.17
2023-02-13T20:32:36.308Z,5.33
2023-02-13T20:35:02.854Z,6.00
2023-02-13T20:40:13.140Z,6.33
2023-02-13T20:42:39.469Z,7.00
2023-02-13T20:45:05.901Z,5.33
2023-02-13T20:47:32.299Z,5.33
2023-02-13T20:49:58.675Z,6.67
2023-02-13T20:55:18.845Z,5.00
2023-02-13T20:57:45.171Z,5.00
2023-02-13T21:00:11.501Z,4.00
2023-02-13T21:02:37.858Z,5.00
2023-02-13T21:05:04.365Z,5.00
2023-02-13T21:10:14.830Z,6.00
2023-02-13T21:12:41.193Z,6.00
2023-02-13T21:15:07.710Z,5.33
2023-02-13T21:17:34.047Z,6.00
2023-02-13T21:20:00.381Z,5.33
2023-02-13T21:22:26.730Z,6.00
2023-02-13T21:24:53.063Z,5.00
2023-02-13T21:27:19.423Z,3.33
2023-02-13T21:29:45.784Z,4.67
2023-02-13T21:32:12.498Z,5.33
2023-02-13T21:34:38.919Z,7.00
2023-02-13T21:37:05.320Z,6.67
2023-02-13T21:39:31.684Z,6.00
2023-02-13T21:41:58.030Z,7.33
2023-02-13T21:44:24.582Z,9.00
2023-02-13T21:46:50.987Z,6.00
2023-02-13T21:49:17.531Z,8.00
2023-02-13T21:51:43.888Z,9.00
2023-02-13T21:54:10.296Z,8.00
2023-02-13T21:56:36.679Z,6.67
2023-02-13T21:59:03.926Z,9.00
2023-02-13T22:01:30.478Z,51.50
2023-02-13T22:04:00.200Z,61.00
2023-02-13T22:06:27.137Z,56.00
2023-02-13T22:08:53.783Z,49.50
2023-02-13T22:11:20.278Z,44.50
2023-02-13T22:13:46.738Z,42.00
2023-02-13T22:16:13.241Z,36.00
2023-02-13T22:18:40.655Z,33.50
2023-02-13T22:21:07.114Z,27.00
2023-02-13T22:23:36.653Z,21.33
2023-02-13T22:26:04.390Z,21.33
2023-02-13T22:28:31.780Z,19.67
2023-02-13T22:30:58.629Z,18.00
2023-02-13T22:33:26.381Z,17.00
2023-02-13T22:35:54.708Z,15.60
2023-02-13T22:38:21.148Z,19.00
2023-02-13T22:43:33.383Z,10.50
2023-02-13T22:46:02.181Z,12.00
2023-02-13T22:48:30.783Z,15.00
2023-02-13T22:50:57.494Z,11.00
2023-02-13T22:53:24.104Z,13.00
2023-02-13T22:58:44.347Z,12.00
2023-02-13T23:01:10.855Z,8.67
2023-02-13T23:03:39.996Z,9.17
2023-02-13T23:06:06.560Z,8.67
2023-02-13T23:08:33.794Z,8.00
2023-02-13T23:13:44.217Z,8.67
2023-02-13T23:16:10.571Z,7.33
2023-02-13T23:18:36.969Z,7.33
2023-02-13T23:21:03.315Z,8.33
2023-02-13T23:23:29.648Z,8.00
2023-02-13T23:28:49.927Z,13.00
2023-02-13T23:31:19.235Z,12.83
2023-02-13T23:33:47.586Z,9.80
2023-02-13T23:36:14.010Z,11.00
2023-02-13T23:38:40.489Z,8.50
2023-02-13T23:43:50.436Z,8.00
2023-02-13T23:46:16.808Z,8.67
2023-02-13T23:48:43.113Z,7.67
2023-02-13T23:51:09.547Z,8.00
2023-02-13T23:53:35.877Z,8.67
2023-02-13T23:58:46.216Z,6.00
